sensor_id;sensor_type;location;lat;lon;timestamp;pressure;altitude;pressure_sealevel;temperature;humidity
44309;BME280;30022;55.846;37.340;2023-04-26T00:01:42;51323.09;;;-143.51;100.00
44309;BME280;30022;55.846;37.340;2023-04-26T00:04:08;51536.63;;;-143.51;100.00
44309;BME280;30022;55.846;37.340;2023-04-26T00:06:34;52090.31;;;-143.51;100.00
44309;BME280;30022;55.846;37.340;2023-04-26T00:09:01;52151.63;;;-143.51;100.00
44309;BME280;30022;55.846;37.340;2023-04-26T00:11:27;51649.34;;;-143.51;100.00
44309;BME280;30022;55.846;37.340;2023-04-26T00:13:53;53017.91;;;-143.51;100.00
44309;BME280;30022;55.846;37.340;2023-04-26T00:16:18;55115.16;;;-143.51;100.00
44309;BME280;30022;55.846;37.340;2023-04-26T00:18:45;56722.53;;;-143.51;100.00
44309;BME280;30022;55.846;37.340;2023-04-26T00:21:11;56490.88;;;-143.51;100.00
44309;BME280;30022;55.846;37.340;2023-04-26T00:23:36;56704.69;;;-143.51;100.00
44309;BME280;30022;55.846;37.340;2023-04-26T00:26:02;57962.13;;;-143.51;100.00
44309;BME280;30022;55.846;37.340;2023-04-26T00:28:28;57314.53;;;-143.51;100.00
44309;BME280;30022;55.846;37.340;2023-04-26T00:30:55;58389.94;;;-143.51;100.00
44309;BME280;30022;55.846;37.340;2023-04-26T00:33:22;58088.88;;;-143.51;100.00
44309;BME280;30022;55.846;37.340;2023-04-26T00:35:48;59309.09;;;-143.51;100.00
44309;BME280;30022;55.846;37.340;2023-04-26T00:38:13;60517.78;;;-143.51;100.00
44309;BME280;30022;55.846;37.340;2023-04-26T00:40:39;62276.03;;;-143.51;100.00
44309;BME280;30022;55.846;37.340;2023-04-26T00:43:05;63773.22;;;-143.51;100.00
44309;BME280;30022;55.846;37.340;2023-04-26T00:45:31;65054.69;;;-143.51;100.00
44309;BME280;30022;55.846;37.340;2023-04-26T00:48:00;66888.38;;;-143.51;100.00
44309;BME280;30022;55.846;37.340;2023-04-26T00:50:26;66550.94;;;-143.51;100.00
44309;BME280;30022;55.846;37.340;2023-04-26T00:52:52;69940.41;;;-143.51;100.00
44309;BME280;30022;55.846;37.340;2023-04-26T00:55:18;69775.53;;;-143.51;100.00
44309;BME280;30022;55.846;37.340;2023-04-26T00:57:46;70792.72;;;-143.51;100.00
44309;BME280;30022;55.846;37.340;2023-04-26T01:00:12;73336.75;;;-143.51;100.00
44309;BME280;30022;55.846;37.340;2023-04-26T01:02:38;75118.53;;;-143.51;100.00
44309;BME280;30022;55.846;37.340;2023-04-26T01:05:05;77155.84;;;-143.51;100.00
44309;BME280;30022;55.846;37.340;2023-04-26T01:07:31;78939.34;;;-143.51;100.00
44309;BME280;30022;55.846;37.340;2023-04-26T01:10:01;79703.94;;;-143.51;100.00
44309;BME280;30022;55.846;37.340;2023-04-26T01:12:29;80468.66;;;-143.51;100.00
44309;BME280;30022;55.846;37.340;2023-04-26T01:14:54;79449.03;;;-143.51;100.00
44309;BME280;30022;55.846;37.340;2023-04-26T01:17:21;79703.94;;;-143.51;100.00
44309;BME280;30022;55.846;37.340;2023-04-26T01:19:47;82253.63;;;-143.51;100.00
44309;BME280;30022;55.846;37.340;2023-04-26T01:22:13;83529.09;;;-143.51;100.00
44309;BME280;30022;55.846;37.340;2023-04-26T01:24:38;84804.97;;;-143.51;100.00
44309;BME280;30022;55.846;37.340;2023-04-26T01:27:05;85570.66;;;-143.51;100.00
44309;BME280;30022;55.846;37.340;2023-04-26T01:29:31;86591.84;;;-143.51;100.00
44309;BME280;30022;55.846;37.340;2023-04-26T01:31:57;87868.69;;;-143.51;100.00
44309;BME280;30022;55.846;37.340;2023-04-26T01:34:26;89656.94;;;-143.51;100.00
44309;BME280;30022;55.846;37.340;2023-04-26T01:36:52;88634.97;;;-143.51;100.00
44309;BME280;30022;55.846;37.340;2023-04-26T01:39:18;88890.44;;;-143.51;100.00
44309;BME280;30022;55.846;37.340;2023-04-26T01:41:44;90168.00;;;-143.51;100.00
44309;BME280;30022;55.846;37.340;2023-04-26T01:44:10;90934.75;;;-143.51;100.00
44309;BME280;30022;55.846;37.340;2023-04-26T01:46:35;91701.63;;;-143.51;100.00
44309;BME280;30022;55.846;37.340;2023-04-26T01:49:01;92212.97;;;-143.51;100.00
44309;BME280;30022;55.846;37.340;2023-04-26T01:51:28;91445.97;;;-143.51;100.00
44309;BME280;30022;55.846;37.340;2023-04-26T01:53:54;91957.28;;;-143.51;100.00
44309;BME280;30022;55.846;37.340;2023-04-26T01:56:21;91957.28;;;-143.51;100.00
44309;BME280;30022;55.846;37.340;2023-04-26T01:58:46;92980.09;;;-143.51;100.00
44309;BME280;30022;55.846;37.340;2023-04-26T02:01:12;91190.34;;;-143.51;100.00
44309;BME280;30022;55.846;37.340;2023-04-26T02:03:37;91445.97;;;-143.51;100.00
44309;BME280;30022;55.846;37.340;2023-04-26T02:06:03;93747.34;;;-143.51;100.00
44309;BME280;30022;55.846;37.340;2023-04-26T02:08:29;93491.56;;;-143.51;100.00
44309;BME280;30022;55.846;37.340;2023-04-26T02:10:55;93747.34;;;-143.51;100.00
44309;BME280;30022;55.846;37.340;2023-04-26T02:13:20;95282.31;;;-143.51;100.00
44309;BME280;30022;55.846;37.340;2023-04-26T02:15:47;96305.97;;;-143.51;100.00
44309;BME280;30022;55.846;37.340;2023-04-26T02:18:12;96817.88;;;-143.51;100.00
44309;BME280;30022;55.846;37.340;2023-04-26T02:20:40;96817.88;;;-143.51;100.00
44309;BME280;30022;55.846;37.340;2023-04-26T02:23:10;97841.91;;;-143.51;100.00
44309;BME280;30022;55.846;37.340;2023-04-26T02:25:36;98354.00;;;-143.51;100.00
44309;BME280;30022;55.846;37.340;2023-04-26T02:28:02;99122.31;;;-143.51;100.00
44309;BME280;30022;55.846;37.340;2023-04-26T02:30:27;98097.94;;;-143.51;100.00
44309;BME280;30022;55.846;37.340;2023-04-26T02:32:53;98354.00;;;-143.51;100.00
44309;BME280;30022;55.846;37.340;2023-04-26T02:35:19;99122.31;;;-143.51;100.00
44309;BME280;30022;55.846;37.340;2023-04-26T02:37:45;98097.94;;;-143.51;100.00
44309;BME280;30022;55.846;37.340;2023-04-26T02:40:13;99890.75;;;-143.51;100.00
44309;BME280;30022;55.846;37.340;2023-04-26T02:42:39;99378.44;;;-143.51;100.00
44309;BME280;30022;55.846;37.340;2023-04-26T02:45:06;99634.56;;;-143.51;100.00
44309;BME280;30022;55.846;37.340;2023-04-26T02:47:32;98097.94;;;-143.51;100.00
44309;BME280;30022;55.846;37.340;2023-04-26T02:50:01;97073.84;;;-143.51;100.00
44309;BME280;30022;55.846;37.340;2023-04-26T02:52:29;97841.91;;;-143.51;100.00
44309;BME280;30022;55.846;37.340;2023-04-26T02:54:54;99122.31;;;-143.51;100.00
44309;BME280;30022;55.846;37.340;2023-04-26T02:57:20;100659.31;;;-143.51;100.00
44309;BME280;30022;55.846;37.340;2023-04-26T02:59:45;100146.91;;;-143.51;100.00
44309;BME280;30022;55.846;37.340;2023-04-26T03:02:11;99890.75;;;-143.51;100.00
44309;BME280;30022;55.846;37.340;2023-04-26T03:04:37;98866.19;;;-143.51;100.00
44309;BME280;30022;55.846;37.340;2023-04-26T03:07:04;99378.44;;;-143.51;100.00
44309;BME280;30022;55.846;37.340;2023-04-26T03:09:30;99890.75;;;-143.51;100.00
44309;BME280;30022;55.846;37.340;2023-04-26T03:11:55;99634.56;;;-143.51;100.00
44309;BME280;30022;55.846;37.340;2023-04-26T03:14:21;100915.53;;;-143.51;100.00
44309;BME280;30022;55.846;37.340;2023-04-26T03:16:47;100403.09;;;-143.51;100.00
44309;BME280;30022;55.846;37.340;2023-04-26T03:19:13;100915.53;;;-143.51;100.00
44309;BME280;30022;55.846;37.340;2023-04-26T03:21:39;101428.03;;;-143.51;100.00
44309;BME280;30022;55.846;37.340;2023-04-26T03:24:05;101684.31;;;-143.51;100.00
44309;BME280;30022;55.846;37.340;2023-04-26T03:26:32;101684.31;;;-143.51;100.00
44309;BME280;30022;55.846;37.340;2023-04-26T03:28:58;101940.59;;;-143.51;100.00
44309;BME280;30022;55.846;37.340;2023-04-26T03:31:24;102196.91;;;-143.51;100.00
44309;BME280;30022;55.846;37.340;2023-04-26T03:33:50;102196.91;;;-143.51;100.00
44309;BME280;30022;55.846;37.340;2023-04-26T03:36:16;102453.22;;;-143.51;100.00
44309;BME280;30022;55.846;37.340;2023-04-26T03:38:41;102965.94;;;-143.51;100.00
44309;BME280;30022;55.846;37.340;2023-04-26T03:41:08;103478.69;;;-143.51;100.00
44309;BME280;30022;55.846;37.340;2023-04-26T03:43:34;103222.31;;;-143.51;100.00
44309;BME280;30022;55.846;37.340;2023-04-26T03:45:59;103222.31;;;-143.51;100.00
44309;BME280;30022;55.846;37.340;2023-04-26T03:48:25;103478.69;;;-143.51;100.00
44309;BME280;30022;55.846;37.340;2023-04-26T03:50:52;103735.09;;;-143.51;100.00
44309;BME280;30022;55.846;37.340;2023-04-26T03:53:18;103735.09;;;-143.51;100.00
44309;BME280;30022;55.846;37.340;2023-04-26T03:55:44;103991.50;;;-143.51;100.00
44309;BME280;30022;55.846;37.340;2023-04-26T03:58:09;103478.69;;;-143.51;100.00
44309;BME280;30022;55.846;37.340;2023-04-26T04:00:38;103991.50;;;-143.51;100.00
44309;BME280;30022;55.846;37.340;2023-04-26T04:03:05;105017.34;;;-143.51;100.00
44309;BME280;30022;55.846;37.340;2023-04-26T04:05:31;108609.84;;;-143.51;100.00
44309;BME280;30022;55.846;37.340;2023-04-26T04:07:57;110150.44;;;-143.51;100.00
44309;BME280;30022;55.846;37.340;2023-04-26T04:10:23;110920.97;;;-143.51;100.00
44309;BME280;30022;55.846;37.340;2023-04-26T04:12:49;111177.84;;;-143.51;100.00
44309;BME280;30022;55.846;37.340;2023-04-26T04:15:15;111179.84;;;-143.51;100.00
44309;BME280;30022;55.846;37.340;2023-04-26T04:17:45;111179.84;;;-143.51;100.00
44309;BME280;30022;55.846;37.340;2023-04-26T04:20:10;111179.84;;;-143.51;100.00
44309;BME280;30022;55.846;37.340;2023-04-26T04:22:36;111179.84;;;-143.51;100.00
44309;BME280;30022;55.846;37.340;2023-04-26T04:25:05;111179.84;;;-143.51;100.00
44309;BME280;30022;55.846;37.340;2023-04-26T04:27:31;111179.84;;;-143.51;100.00
44309;BME280;30022;55.846;37.340;2023-04-26T04:29:56;111179.84;;;-143.51;100.00
44309;BME280;30022;55.846;37.340;2023-04-26T04:32:22;111179.84;;;-143.51;100.00
44309;BME280;30022;55.846;37.340;2023-04-26T04:34:50;111179.84;;;-143.51;100.00
44309;BME280;30022;55.846;37.340;2023-04-26T04:37:18;111179.84;;;-143.51;100.00
44309;BME280;30022;55.846;37.340;2023-04-26T04:39:44;111179.84;;;-143.51;100.00
44309;BME280;30022;55.846;37.340;2023-04-26T04:42:09;111179.84;;;-143.51;100.00
44309;BME280;30022;55.846;37.340;2023-04-26T04:44:37;111179.84;;;-143.51;100.00
44309;BME280;30022;55.846;37.340;2023-04-26T04:47:04;111179.84;;;-143.51;100.00
44309;BME280;30022;55.846;37.340;2023-04-26T04:49:30;111179.84;;;-143.51;100.00
44309;BME280;30022;55.846;37.340;2023-04-26T04:51:56;111179.84;;;-143.51;100.00
44309;BME280;30022;55.846;37.340;2023-04-26T04:54:22;111179.84;;;-143.51;100.00
44309;BME280;30022;55.846;37.340;2023-04-26T04:56:49;111179.84;;;-143.51;100.00
44309;BME280;30022;55.846;37.340;2023-04-26T04:59:15;111179.84;;;-143.51;100.00
44309;BME280;30022;55.846;37.340;2023-04-26T05:01:41;111179.84;;;-143.51;100.00
44309;BME280;30022;55.846;37.340;2023-04-26T05:04:10;111179.84;;;-143.51;100.00
44309;BME280;30022;55.846;37.340;2023-04-26T05:06:36;111179.84;;;-143.51;100.00
44309;BME280;30022;55.846;37.340;2023-04-26T05:09:02;111179.84;;;-143.51;100.00
44309;BME280;30022;55.846;37.340;2023-04-26T05:11:30;111179.84;;;-143.51;100.00
44309;BME280;30022;55.846;37.340;2023-04-26T05:13:57;111179.84;;;-143.51;100.00
44309;BME280;30022;55.846;37.340;2023-04-26T05:16:22;111179.84;;;-143.51;100.00
44309;BME280;30022;55.846;37.340;2023-04-26T05:18:48;111179.84;;;-143.51;100.00
44309;BME280;30022;55.846;37.340;2023-04-26T05:21:14;111179.84;;;-143.51;100.00
44309;BME280;30022;55.846;37.340;2023-04-26T05:23:40;111179.84;;;-143.51;100.00
44309;BME280;30022;55.846;37.340;2023-04-26T05:26:06;111179.84;;;-143.51;100.00
44309;BME280;30022;55.846;37.340;2023-04-26T05:28:52;111179.84;;;-143.51;100.00
44309;BME280;30022;55.846;37.340;2023-04-26T05:31:33;111179.84;;;-143.51;100.00
44309;BME280;30022;55.846;37.340;2023-04-26T05:34:01;111179.84;;;-143.51;100.00
44309;BME280;30022;55.846;37.340;2023-04-26T05:36:30;111179.84;;;-143.51;100.00
44309;BME280;30022;55.846;37.340;2023-04-26T05:38:57;111179.84;;;-143.51;100.00
44309;BME280;30022;55.846;37.340;2023-04-26T05:41:22;111179.84;;;-143.51;100.00
44309;BME280;30022;55.846;37.340;2023-04-26T05:43:48;111179.84;;;-143.51;100.00
44309;BME280;30022;55.846;37.340;2023-04-26T05:46:15;111179.84;;;-143.51;100.00
44309;BME280;30022;55.846;37.340;2023-04-26T05:48:40;111179.84;;;-143.51;100.00
44309;BME280;30022;55.846;37.340;2023-04-26T05:51:06;111179.84;;;-143.51;100.00
44309;BME280;30022;55.846;37.340;2023-04-26T05:53:31;111179.84;;;-143.51;100.00
44309;BME280;30022;55.846;37.340;2023-04-26T05:55:58;111179.84;;;-143.51;100.00
44309;BME280;30022;55.846;37.340;2023-04-26T05:58:24;111179.84;;;-143.51;100.00
44309;BME280;30022;55.846;37.340;2023-04-26T06:00:54;111179.84;;;-143.51;100.00
44309;BME280;30022;55.846;37.340;2023-04-26T06:03:19;111179.84;;;-143.51;100.00
44309;BME280;30022;55.846;37.340;2023-04-26T06:05:45;111179.84;;;-143.51;100.00
44309;BME280;30022;55.846;37.340;2023-04-26T06:08:11;111179.84;;;-143.51;100.00
44309;BME280;30022;55.846;37.340;2023-04-26T06:10:37;111179.84;;;-143.51;100.00
44309;BME280;30022;55.846;37.340;2023-04-26T06:13:03;111179.84;;;-143.51;100.00
44309;BME280;30022;55.846;37.340;2023-04-26T06:15:32;111179.84;;;-143.51;100.00
44309;BME280;30022;55.846;37.340;2023-04-26T06:17:58;111179.84;;;-143.51;100.00
44309;BME280;30022;55.846;37.340;2023-04-26T06:20:24;111179.84;;;-143.51;100.00
44309;BME280;30022;55.846;37.340;2023-04-26T06:22:51;111179.84;;;-143.51;100.00
44309;BME280;30022;55.846;37.340;2023-04-26T06:25:16;111179.84;;;-143.51;100.00
44309;BME280;30022;55.846;37.340;2023-04-26T06:27:42;111179.84;;;-143.51;100.00
44309;BME280;30022;55.846;37.340;2023-04-26T06:30:09;111179.84;;;-143.51;100.00
44309;BME280;30022;55.846;37.340;2023-04-26T06:32:39;111179.84;;;-143.51;100.00
44309;BME280;30022;55.846;37.340;2023-04-26T06:35:05;111179.84;;;-143.51;100.00
44309;BME280;30022;55.846;37.340;2023-04-26T06:37:31;111179.84;;;-143.51;100.00
44309;BME280;30022;55.846;37.340;2023-04-26T06:39:57;111179.84;;;-143.51;100.00
44309;BME280;30022;55.846;37.340;2023-04-26T06:42:24;111179.84;;;-143.51;100.00
44309;BME280;30022;55.846;37.340;2023-04-26T06:45:09;111179.84;;;-143.51;100.00
44309;BME280;30022;55.846;37.340;2023-04-26T06:47:36;111179.84;;;-143.51;100.00
44309;BME280;30022;55.846;37.340;2023-04-26T06:50:04;111179.84;;;-143.51;100.00
44309;BME280;30022;55.846;37.340;2023-04-26T06:52:30;111179.84;;;-143.51;100.00
44309;BME280;30022;55.846;37.340;2023-04-26T06:54:56;111179.84;;;-143.51;100.00
44309;BME280;30022;55.846;37.340;2023-04-26T06:57:21;111179.84;;;-143.51;100.00
44309;BME280;30022;55.846;37.340;2023-04-26T06:59:47;111179.84;;;-143.51;100.00
44309;BME280;30022;55.846;37.340;2023-04-26T07:02:13;111179.84;;;-143.51;100.00
44309;BME280;30022;55.846;37.340;2023-04-26T07:04:38;111179.84;;;-143.51;100.00
44309;BME280;30022;55.846;37.340;2023-04-26T07:07:04;111179.84;;;-143.51;100.00
44309;BME280;30022;55.846;37.340;2023-04-26T07:09:30;111179.84;;;-143.51;100.00
44309;BME280;30022;55.846;37.340;2023-04-26T07:11:56;111179.84;;;-143.51;100.00
44309;BME280;30022;55.846;37.340;2023-04-26T07:14:21;111179.84;;;-143.51;100.00
44309;BME280;30022;55.846;37.340;2023-04-26T07:16:47;111179.84;;;-143.51;100.00
44309;BME280;30022;55.846;37.340;2023-04-26T07:19:13;111179.84;;;-143.51;100.00
44309;BME280;30022;55.846;37.340;2023-04-26T07:21:39;111179.84;;;-143.51;100.00
44309;BME280;30022;55.846;37.340;2023-04-26T07:24:04;111179.84;;;-143.51;100.00
44309;BME280;30022;55.846;37.340;2023-04-26T07:26:31;111179.84;;;-143.51;100.00
44309;BME280;30022;55.846;37.340;2023-04-26T07:28:56;111179.84;;;-143.51;100.00
44309;BME280;30022;55.846;37.340;2023-04-26T07:31:22;111179.84;;;-143.51;100.00
44309;BME280;30022;55.846;37.340;2023-04-26T07:33:47;111179.84;;;-143.51;100.00
44309;BME280;30022;55.846;37.340;2023-04-26T07:36:13;111179.84;;;-143.51;100.00
44309;BME280;30022;55.846;37.340;2023-04-26T07:38:39;111179.84;;;-143.51;100.00
44309;BME280;30022;55.846;37.340;2023-04-26T07:41:04;111179.84;;;-143.51;100.00
44309;BME280;30022;55.846;37.340;2023-04-26T07:43:30;111179.84;;;-143.51;100.00
44309;BME280;30022;55.846;37.340;2023-04-26T07:45:59;111179.84;;;-143.51;100.00
44309;BME280;30022;55.846;37.340;2023-04-26T07:48:26;111179.84;;;-143.51;100.00
44309;BME280;30022;55.846;37.340;2023-04-26T07:50:51;111179.84;;;-143.51;100.00
44309;BME280;30022;55.846;37.340;2023-04-26T07:53:17;111179.84;;;-143.51;100.00
44309;BME280;30022;55.846;37.340;2023-04-26T07:55:43;111179.84;;;-143.51;100.00
44309;BME280;30022;55.846;37.340;2023-04-26T07:58:08;111179.84;;;-143.51;100.00
44309;BME280;30022;55.846;37.340;2023-04-26T08:00:39;111179.84;;;-143.51;100.00
44309;BME280;30022;55.846;37.340;2023-04-26T08:03:04;111179.84;;;-143.51;100.00
44309;BME280;30022;55.846;37.340;2023-04-26T08:05:30;111179.84;;;-143.51;100.00
44309;BME280;30022;55.846;37.340;2023-04-26T08:07:56;111179.84;;;-143.51;100.00
44309;BME280;30022;55.846;37.340;2023-04-26T08:10:21;111179.84;;;-143.51;100.00
44309;BME280;30022;55.846;37.340;2023-04-26T08:12:47;111179.84;;;-143.51;100.00
44309;BME280;30022;55.846;37.340;2023-04-26T08:15:12;111179.84;;;-143.51;100.00
44309;BME280;30022;55.846;37.340;2023-04-26T08:17:38;111179.84;;;-143.51;100.00
44309;BME280;30022;55.846;37.340;2023-04-26T08:20:04;111179.84;;;-143.51;100.00
44309;BME280;30022;55.846;37.340;2023-04-26T08:22:31;111179.84;;;-143.51;100.00
44309;BME280;30022;55.846;37.340;2023-04-26T08:24:56;111179.84;;;-143.51;100.00
44309;BME280;30022;55.846;37.340;2023-04-26T08:27:22;111179.84;;;-143.51;100.00
44309;BME280;30022;55.846;37.340;2023-04-26T08:29:48;111179.84;;;-143.51;100.00
44309;BME280;30022;55.846;37.340;2023-04-26T08:32:13;111179.84;;;-143.51;100.00
44309;BME280;30022;55.846;37.340;2023-04-26T08:34:39;111179.84;;;-143.51;100.00
44309;BME280;30022;55.846;37.340;2023-04-26T08:37:08;111179.84;;;-143.51;100.00
44309;BME280;30022;55.846;37.340;2023-04-26T08:39:33;111179.84;;;-143.51;100.00
44309;BME280;30022;55.846;37.340;2023-04-26T08:42:03;111179.84;;;-143.51;100.00
44309;BME280;30022;55.846;37.340;2023-04-26T08:44:29;111179.84;;;-143.51;100.00
44309;BME280;30022;55.846;37.340;2023-04-26T08:47:05;111179.84;;;-143.51;100.00
44309;BME280;30022;55.846;37.340;2023-04-26T08:51:59;111179.84;;;-143.51;100.00
44309;BME280;30022;55.846;37.340;2023-04-26T08:54:27;111179.84;;;-143.51;100.00
44309;BME280;30022;55.846;37.340;2023-04-26T08:56:53;111179.84;;;-143.51;100.00
44309;BME280;30022;55.846;37.340;2023-04-26T08:59:20;111179.84;;;-143.51;100.00
44309;BME280;30022;55.846;37.340;2023-04-26T09:01:47;111179.84;;;-143.51;100.00
44309;BME280;30022;55.846;37.340;2023-04-26T09:04:13;111179.84;;;-143.51;100.00
44309;BME280;30022;55.846;37.340;2023-04-26T09:06:38;111179.84;;;-143.51;100.00
44309;BME280;30022;55.846;37.340;2023-04-26T09:09:04;111179.84;;;-143.51;100.00
44309;BME280;30022;55.846;37.340;2023-04-26T09:11:55;111179.84;;;-143.51;100.00
44309;BME280;30022;55.846;37.340;2023-04-26T09:14:22;111179.84;;;-143.51;100.00
44309;BME280;30022;55.846;37.340;2023-04-26T09:16:48;111179.84;;;-143.51;100.00
44309;BME280;30022;55.846;37.340;2023-04-26T09:19:13;111179.84;;;-143.51;100.00
44309;BME280;30022;55.846;37.340;2023-04-26T09:21:43;111179.84;;;-143.51;100.00
44309;BME280;30022;55.846;37.340;2023-04-26T09:24:12;111179.84;;;-143.51;100.00
44309;BME280;30022;55.846;37.340;2023-04-26T09:26:43;111179.84;;;-143.51;100.00
44309;BME280;30022;55.846;37.340;2023-04-26T09:29:13;111179.84;;;-143.51;100.00
44309;BME280;30022;55.846;37.340;2023-04-26T09:31:40;111179.84;;;-143.51;100.00
44309;BME280;30022;55.846;37.340;2023-04-26T09:34:06;111179.84;;;-143.51;100.00
44309;BME280;30022;55.846;37.340;2023-04-26T09:36:44;111179.84;;;-143.51;100.00
44309;BME280;30022;55.846;37.340;2023-04-26T09:39:10;111179.84;;;-143.51;100.00
44309;BME280;30022;55.846;37.340;2023-04-26T09:41:43;111179.84;;;-143.51;100.00
44309;BME280;30022;55.846;37.340;2023-04-26T09:44:21;111179.84;;;-143.51;100.00
44309;BME280;30022;55.846;37.340;2023-04-26T09:46:57;111179.84;;;-143.51;100.00
44309;BME280;30022;55.846;37.340;2023-04-26T09:49:24;111179.84;;;-143.51;100.00
44309;BME280;30022;55.846;37.340;2023-04-26T09:51:59;111179.84;;;-143.51;100.00
44309;BME280;30022;55.846;37.340;2023-04-26T09:54:47;111179.84;;;-143.51;100.00
44309;BME280;30022;55.846;37.340;2023-04-26T09:57:11;111179.84;;;-143.51;100.00
44309;BME280;30022;55.846;37.340;2023-04-26T09:59:47;111179.84;;;-143.51;100.00
44309;BME280;30022;55.846;37.340;2023-04-26T10:02:20;111179.84;;;-143.51;100.00
44309;BME280;30022;55.846;37.340;2023-04-26T10:04:47;111179.84;;;-143.51;100.00
44309;BME280;30022;55.846;37.340;2023-04-26T10:07:13;111179.84;;;-143.51;100.00
44309;BME280;30022;55.846;37.340;2023-04-26T10:09:40;111179.84;;;-143.51;100.00
44309;BME280;30022;55.846;37.340;2023-04-26T10:12:07;111179.84;;;-143.51;100.00
44309;BME280;30022;55.846;37.340;2023-04-26T10:14:33;111179.84;;;-143.51;100.00
44309;BME280;30022;55.846;37.340;2023-04-26T10:16:59;111179.84;;;-143.51;100.00
44309;BME280;30022;55.846;37.340;2023-04-26T10:19:25;111179.84;;;-143.51;100.00
44309;BME280;30022;55.846;37.340;2023-04-26T10:21:51;111179.84;;;-143.51;100.00
44309;BME280;30022;55.846;37.340;2023-04-26T10:24:18;111179.84;;;-143.51;100.00
44309;BME280;30022;55.846;37.340;2023-04-26T10:29:13;111179.84;;;-143.51;100.00
44309;BME280;30022;55.846;37.340;2023-04-26T10:34:24;111179.84;;;-143.51;100.00
44309;BME280;30022;55.846;37.340;2023-04-26T10:37:08;111177.84;;;-143.51;100.00
44309;BME280;30022;55.846;37.340;2023-04-26T10:39:34;111179.84;;;-143.51;100.00
44309;BME280;30022;55.846;37.340;2023-04-26T10:44:47;111177.84;;;-143.51;100.00
44309;BME280;30022;55.846;37.340;2023-04-26T10:47:25;111179.84;;;-143.51;100.00
44309;BME280;30022;55.846;37.340;2023-04-26T10:49:53;111179.84;;;-143.51;100.00
44309;BME280;30022;55.846;37.340;2023-04-26T10:52:25;111179.84;;;-143.51;100.00
44309;BME280;30022;55.846;37.340;2023-04-26T10:54:52;111179.84;;;-143.51;100.00
44309;BME280;30022;55.846;37.340;2023-04-26T10:57:18;111179.84;;;-143.51;100.00
44309;BME280;30022;55.846;37.340;2023-04-26T11:10:29;111179.84;;;-143.51;100.00
44309;BME280;30022;55.846;37.340;2023-04-26T11:13:01;111179.84;;;-143.51;100.00
44309;BME280;30022;55.846;37.340;2023-04-26T11:15:30;111179.84;;;-143.51;100.00
44309;BME280;30022;55.846;37.340;2023-04-26T11:17:56;111177.84;;;-143.51;100.00
44309;BME280;30022;55.846;37.340;2023-04-26T11:20:22;111179.84;;;-143.51;100.00
44309;BME280;30022;55.846;37.340;2023-04-26T11:22:47;110407.28;;;-143.51;100.00
44309;BME280;30022;55.846;37.340;2023-04-26T11:25:13;110407.28;;;-143.51;100.00
44309;BME280;30022;55.846;37.340;2023-04-26T11:27:41;111179.84;;;-143.51;100.00
44309;BME280;30022;55.846;37.340;2023-04-26T11:30:07;111177.84;;;-143.51;100.00
44309;BME280;30022;55.846;37.340;2023-04-26T11:32:33;110920.97;;;-143.51;100.00
44309;BME280;30022;55.846;37.340;2023-04-26T11:34:59;111177.84;;;-143.51;100.00
44309;BME280;30022;55.846;37.340;2023-04-26T11:37:25;109893.63;;;-143.51;100.00
44309;BME280;30022;55.846;37.340;2023-04-26T11:39:51;110920.97;;;-143.51;100.00
44309;BME280;30022;55.846;37.340;2023-04-26T11:42:16;110407.28;;;-143.51;100.00
44309;BME280;30022;55.846;37.340;2023-04-26T11:44:42;110664.09;;;-143.51;100.00
44309;BME280;30022;55.846;37.340;2023-04-26T11:47:08;109380.06;;;-143.51;100.00
44309;BME280;30022;55.846;37.340;2023-04-26T11:49:37;109123.31;;;-143.51;100.00
44309;BME280;30022;55.846;37.340;2023-04-26T11:52:03;109380.06;;;-143.51;100.00
44309;BME280;30022;55.846;37.340;2023-04-26T11:54:33;109636.84;;;-143.51;100.00
44309;BME280;30022;55.846;37.340;2023-04-26T11:56:58;108866.56;;;-143.51;100.00
44309;BME280;30022;55.846;37.340;2023-04-26T11:59:24;109636.84;;;-143.51;100.00
44309;BME280;30022;55.846;37.340;2023-04-26T12:01:50;110150.44;;;-143.51;100.00
44309;BME280;30022;55.846;37.340;2023-04-26T12:04:19;110920.97;;;-143.51;100.00
44309;BME280;30022;55.846;37.340;2023-04-26T12:06:51;109636.84;;;-143.51;100.00
44309;BME280;30022;55.846;37.340;2023-04-26T12:09:21;110150.44;;;-143.51;100.00
44309;BME280;30022;55.846;37.340;2023-04-26T12:11:47;110150.44;;;-143.51;100.00
44309;BME280;30022;55.846;37.340;2023-04-26T12:14:15;110407.28;;;-143.51;100.00
44309;BME280;30022;55.846;37.340;2023-04-26T12:16:45;108096.44;;;-143.51;100.00
44309;BME280;30022;55.846;37.340;2023-04-26T12:19:10;108609.84;;;-143.51;100.00
44309;BME280;30022;55.846;37.340;2023-04-26T12:21:41;110664.09;;;-143.51;100.00
44309;BME280;30022;55.846;37.340;2023-04-26T12:24:06;109893.63;;;-143.51;100.00
44309;BME280;30022;55.846;37.340;2023-04-26T12:26:40;109636.84;;;-143.51;100.00
44309;BME280;30022;55.846;37.340;2023-04-26T12:29:06;109123.31;;;-143.51;100.00
44309;BME280;30022;55.846;37.340;2023-04-26T12:31:31;109123.31;;;-143.51;100.00
44309;BME280;30022;55.846;37.340;2023-04-26T12:33:57;106813.19;;;-143.51;100.00